Time;durP1;ratioP1;P1;durP2;ratioP2;P2;SDS_P1;SDS_P2;PMS_P1;PMS_P2;Temp;Humidity;BMP_temperature;BMP_pressure;BME280_temperature;BME280_humidity;BME280_pressure;Samples;Min_cycle;Max_cycle;Signal;HPM_P1;HPM_P2
2023/12/24 00:02:00;;;;;;;;;;;24.30;99.90;;;;;;4969822;28;19917;-69
2023/12/24 00:04:26;;;;;;;;;;;24.20;99.90;;;;;;4970151;28;19933;-70
2023/12/24 00:06:53;;;;;;;;;;;24.10;99.90;;;;;;4970480;28;19914;-72
2023/12/24 00:09:20;;;;;;;;;;;23.80;99.90;;;;;;4970825;28;19910;-68
2023/12/24 00:11:46;;;;;;;;;;;23.60;99.90;;;;;;4971089;28;20382;-68
2023/12/24 00:14:13;;;;;;;;;;;23.50;99.90;;;;;;4971788;28;19910;-68
2023/12/24 00:16:41;;;;;;;;;;;23.40;99.90;;;;;;4971598;28;20274;-68
2023/12/24 00:19:08;;;;;;;;;;;23.30;99.90;;;;;;4971108;28;19910;-69
2023/12/24 00:21:35;;;;;;;;;;;23.30;99.90;;;;;;4969835;28;20039;-68
2023/12/24 00:24:01;;;;;;;;;;;23.20;99.90;;;;;;4970383;28;19914;-69
2023/12/24 00:26:28;;;;;;;;;;;23.10;99.90;;;;;;4970864;28;19910;-69
2023/12/24 00:28:55;;;;;;;;;;;23.10;99.90;;;;;;4971520;28;19917;-70
2023/12/24 00:31:22;;;;;;;;;;;23.10;99.90;;;;;;4971299;28;19922;-70
2023/12/24 00:33:49;;;;;;;;;;;23.10;99.90;;;;;;4971177;28;19914;-69
2023/12/24 00:36:15;;;;;;;;;;;23.10;99.90;;;;;;4971749;28;20337;-70
2023/12/24 00:38:42;;;;;;;;;;;23.10;99.90;;;;;;4970595;28;19911;-70
2023/12/24 00:41:09;;;;;;;;;;;22.90;99.90;;;;;;4971510;28;19914;-71
2023/12/24 00:43:37;;;;;;;;;;;22.80;99.90;;;;;;4971378;28;20341;-70
2023/12/24 00:46:03;;;;;;;;;;;22.70;99.90;;;;;;4971540;28;19950;-70
2023/12/24 00:48:30;;;;;;;;;;;22.70;99.90;;;;;;4971583;28;19925;-69
2023/12/24 00:50:56;;;;;;;;;;;22.70;99.90;;;;;;4971850;28;19910;-69
2023/12/24 00:53:23;;;;;;;;;;;22.70;99.90;;;;;;4971274;28;19910;-70
2023/12/24 00:55:50;;;;;;;;;;;22.60;99.90;;;;;;4971410;28;20267;-70
2023/12/24 00:58:17;;;;;;;;;;;22.60;99.90;;;;;;4971418;28;19914;-71
2023/12/24 01:00:46;;;;;;;;;;;22.40;99.90;;;;;;4971322;28;19963;-71
2023/12/24 01:03:13;;;;;;;;;;;22.30;99.90;;;;;;4971114;28;19906;-72
2023/12/24 01:05:40;;;;;;;;;;;22.30;99.90;;;;;;4971201;28;19925;-70
2023/12/24 01:08:07;;;;;;;;;;;22.20;99.90;;;;;;4970675;28;19917;-71
2023/12/24 01:10:34;;;;;;;;;;;21.90;99.90;;;;;;4971363;28;19910;-69
2023/12/24 01:13:00;;;;;;;;;;;21.80;99.90;;;;;;4971144;28;20454;-69
2023/12/24 01:15:27;;;;;;;;;;;21.70;99.90;;;;;;4971511;28;20283;-70
2023/12/24 01:17:54;;;;;;;;;;;21.60;99.90;;;;;;4971049;28;19914;-70
2023/12/24 01:20:21;;;;;;;;;;;21.40;99.90;;;;;;4970947;28;19910;-71
2023/12/24 01:22:47;;;;;;;;;;;21.40;99.90;;;;;;4970829;28;19929;-70
2023/12/24 01:25:14;;;;;;;;;;;21.50;99.90;;;;;;4971021;28;20375;-69
2023/12/24 01:27:40;;;;;;;;;;;21.50;99.90;;;;;;4971012;28;19914;-70
2023/12/24 01:30:08;;;;;;;;;;;21.50;99.90;;;;;;4971093;28;20386;-70
2023/12/24 01:32:35;;;;;;;;;;;21.40;99.90;;;;;;4971121;28;19910;-71
2023/12/24 01:35:01;;;;;;;;;;;21.40;99.90;;;;;;4971901;28;19971;-71
2023/12/24 01:37:28;;;;;;;;;;;21.50;99.90;;;;;;4958907;28;20295;-67
2023/12/24 01:39:55;;;;;;;;;;;21.40;99.90;;;;;;4959949;28;19915;-70
2023/12/24 01:42:21;;;;;;;;;;;21.30;99.90;;;;;;4964853;28;20024;-69
2023/12/24 01:44:48;;;;;;;;;;;21.30;99.90;;;;;;4954344;28;19961;-70
2023/12/24 01:47:15;;;;;;;;;;;21.40;99.90;;;;;;4952350;28;20343;-70
2023/12/24 01:49:45;;;;;;;;;;;21.40;99.90;;;;;;4951476;28;19914;-71
2023/12/24 01:52:12;;;;;;;;;;;21.40;99.90;;;;;;4951309;28;19918;-71
2023/12/24 01:54:39;;;;;;;;;;;21.40;99.90;;;;;;4951229;28;19911;-69
2023/12/24 01:57:06;;;;;;;;;;;21.40;99.90;;;;;;4957569;28;19914;-71
2023/12/24 01:59:33;;;;;;;;;;;21.20;99.90;;;;;;4958647;28;20048;-72
2023/12/24 02:02:02;;;;;;;;;;;21.40;99.90;;;;;;4965719;28;19917;-69
2023/12/24 02:04:28;;;;;;;;;;;21.30;99.90;;;;;;4969540;28;19964;-68
2023/12/24 02:06:55;;;;;;;;;;;21.40;99.90;;;;;;4970602;28;20318;-71
2023/12/24 02:09:21;;;;;;;;;;;21.50;99.90;;;;;;4970532;28;19980;-69
2023/12/24 02:11:48;;;;;;;;;;;21.50;99.90;;;;;;4968101;28;19976;-70
2023/12/24 02:14:15;;;;;;;;;;;21.70;99.90;;;;;;4964080;28;20416;-71
2023/12/24 02:16:42;;;;;;;;;;;21.80;99.90;;;;;;4970340;28;19919;-70
2023/12/24 02:19:14;;;;;;;;;;;22.00;99.90;;;;;;4971308;28;19917;-71
2023/12/24 02:21:41;;;;;;;;;;;22.20;99.90;;;;;;4973407;28;19914;-70
2023/12/24 02:24:08;;;;;;;;;;;22.30;99.90;;;;;;4973537;28;19915;-69
2023/12/24 02:26:42;;;;;;;;;;;22.40;99.90;;;;;;4973818;28;19910;-70
2023/12/24 02:29:15;;;;;;;;;;;22.40;99.90;;;;;;4961035;28;19919;-70
2023/12/24 02:31:44;;;;;;;;;;;22.50;99.90;;;;;;4954013;28;19914;-68
2023/12/24 02:34:11;;;;;;;;;;;22.60;99.90;;;;;;4954160;28;19962;-68
2023/12/24 02:36:39;;;;;;;;;;;22.70;99.90;;;;;;4969322;28;19926;-68
2023/12/24 02:39:05;;;;;;;;;;;22.50;99.90;;;;;;4973314;28;19911;-69
2023/12/24 02:41:32;;;;;;;;;;;22.60;99.90;;;;;;4973407;28;19917;-68
2023/12/24 02:43:59;;;;;;;;;;;22.50;99.90;;;;;;4972248;28;20279;-69
2023/12/24 02:46:25;;;;;;;;;;;22.60;99.90;;;;;;4973440;28;19911;-69
2023/12/24 02:48:52;;;;;;;;;;;22.60;99.90;;;;;;4964074;28;19918;-68
2023/12/24 02:51:19;;;;;;;;;;;22.50;99.90;;;;;;4953958;28;19914;-71
2023/12/24 02:53:45;;;;;;;;;;;22.50;99.90;;;;;;4953844;28;19917;-70
2023/12/24 02:56:12;;;;;;;;;;;22.50;99.90;;;;;;4957951;28;19969;-70
2023/12/24 02:58:39;;;;;;;;;;;22.50;99.90;;;;;;4972951;28;19915;-70
2023/12/24 03:01:05;;;;;;;;;;;22.60;99.90;;;;;;4972858;28;19910;-72
2023/12/24 03:03:32;;;;;;;;;;;22.80;99.90;;;;;;4972400;28;19914;-70
2023/12/24 03:05:59;;;;;;;;;;;23.00;99.90;;;;;;4972774;28;19968;-70
2023/12/24 03:08:25;;;;;;;;;;;23.00;99.90;;;;;;4972418;28;19922;-70
2023/12/24 03:10:52;;;;;;;;;;;23.00;99.90;;;;;;4972542;28;19960;-70
2023/12/24 03:13:19;;;;;;;;;;;23.00;99.90;;;;;;4973022;28;19916;-70
2023/12/24 03:15:45;;;;;;;;;;;23.20;99.90;;;;;;4972523;28;20005;-70
2023/12/24 03:18:12;;;;;;;;;;;23.30;99.90;;;;;;4972793;28;20001;-70
2023/12/24 03:20:38;;;;;;;;;;;23.40;99.90;;;;;;4972846;28;19915;-70
2023/12/24 03:23:05;;;;;;;;;;;23.40;99.90;;;;;;4972652;28;19929;-70
2023/12/24 03:25:32;;;;;;;;;;;23.40;99.90;;;;;;4972889;28;19920;-70
2023/12/24 03:27:58;;;;;;;;;;;23.40;99.90;;;;;;4972051;28;19914;-73
2023/12/24 03:30:25;;;;;;;;;;;23.40;99.90;;;;;;4972407;28;19918;-70
2023/12/24 03:32:52;;;;;;;;;;;23.40;99.90;;;;;;4972603;28;19996;-71
2023/12/24 03:35:18;;;;;;;;;;;23.50;99.90;;;;;;4972433;28;20390;-71
2023/12/24 03:37:45;;;;;;;;;;;23.40;99.90;;;;;;4972159;28;19914;-70
2023/12/24 03:40:12;;;;;;;;;;;23.40;99.90;;;;;;4972303;28;20447;-71
2023/12/24 03:42:38;;;;;;;;;;;23.40;99.90;;;;;;4972385;28;19914;-70
2023/12/24 03:45:05;;;;;;;;;;;23.50;99.90;;;;;;4972511;28;19911;-70
2023/12/24 03:47:32;;;;;;;;;;;23.90;99.90;;;;;;4972543;28;20321;-69
2023/12/24 03:49:59;;;;;;;;;;;24.00;99.90;;;;;;4971999;28;19931;-69
2023/12/24 03:52:25;;;;;;;;;;;24.00;99.90;;;;;;4971915;28;19921;-71
2023/12/24 03:54:52;;;;;;;;;;;23.80;99.90;;;;;;4972250;28;19936;-69
2023/12/24 03:57:18;;;;;;;;;;;23.80;99.90;;;;;;4972241;28;19956;-70
2023/12/24 03:59:45;;;;;;;;;;;23.70;99.90;;;;;;4972117;28;20426;-70
2023/12/24 04:02:12;;;;;;;;;;;23.70;99.90;;;;;;4972110;28;19906;-72
2023/12/24 04:04:38;;;;;;;;;;;23.80;99.90;;;;;;4972297;28;19968;-70
2023/12/24 04:07:05;;;;;;;;;;;24.30;99.90;;;;;;4972257;28;19910;-73
2023/12/24 04:09:33;;;;;;;;;;;25.50;99.90;;;;;;4971675;28;19929;-71
2023/12/24 04:12:00;;;;;;;;;;;27.40;99.90;;;;;;4971963;28;19910;-73
2023/12/24 04:14:26;;;;;;;;;;;29.00;99.90;;;;;;4971978;28;20283;-70
2023/12/24 04:16:53;;;;;;;;;;;30.20;99.90;;;;;;4971988;28;19914;-71
2023/12/24 04:19:21;;;;;;;;;;;30.00;99.90;;;;;;4970364;28;19962;-75
2023/12/24 04:21:48;;;;;;;;;;;29.70;99.90;;;;;;4971529;28;19929;-70
2023/12/24 04:24:15;;;;;;;;;;;29.30;99.90;;;;;;4971770;28;19910;-71
2023/12/24 04:26:41;;;;;;;;;;;29.20;99.90;;;;;;4971823;28;19917;-69
2023/12/24 04:29:08;;;;;;;;;;;29.60;99.90;;;;;;4971551;28;19914;-69
2023/12/24 04:31:38;;;;;;;;;;;30.10;99.90;;;;;;4971518;28;20419;-74
2023/12/24 04:34:04;;;;;;;;;;;30.90;99.90;;;;;;4971531;28;19918;-71
2023/12/24 04:36:31;;;;;;;;;;;30.90;99.90;;;;;;4971486;28;20276;-70
2023/12/24 04:38:58;;;;;;;;;;;30.20;99.90;;;;;;4971465;28;20306;-70
2023/12/24 04:41:26;;;;;;;;;;;29.50;99.90;;;;;;4970339;28;19914;-69
2023/12/24 04:43:53;;;;;;;;;;;28.60;99.90;;;;;;4971019;28;19910;-69
2023/12/24 04:46:19;;;;;;;;;;;28.00;99.90;;;;;;4971043;28;19911;-71
2023/12/24 04:48:46;;;;;;;;;;;27.60;99.90;;;;;;4971556;28;19910;-70
2023/12/24 04:51:13;;;;;;;;;;;27.20;99.90;;;;;;4971653;28;20287;-69
2023/12/24 04:53:39;;;;;;;;;;;26.70;99.90;;;;;;4971590;28;20374;-69
2023/12/24 04:56:06;;;;;;;;;;;26.20;99.90;;;;;;4971398;28;19918;-71
2023/12/24 04:58:34;;;;;;;;;;;25.80;99.90;;;;;;4971279;28;19948;-69
2023/12/24 05:01:05;;;;;;;;;;;25.60;99.90;;;;;;4971265;28;20378;-68
2023/12/24 05:03:34;;;;;;;;;;;25.40;99.90;;;;;;4969391;28;19922;-71
2023/12/24 05:06:00;;;;;;;;;;;25.20;99.90;;;;;;4971007;28;19956;-70
2023/12/24 05:08:27;;;;;;;;;;;25.10;99.90;;;;;;4971037;28;19993;-69
2023/12/24 05:10:54;;;;;;;;;;;25.10;99.90;;;;;;4971035;28;19922;-68
2023/12/24 05:13:21;;;;;;;;;;;25.30;99.90;;;;;;4970587;28;19911;-69
2023/12/24 05:15:47;;;;;;;;;;;25.70;99.90;;;;;;4969422;28;19992;-69
2023/12/24 05:18:14;;;;;;;;;;;25.90;99.90;;;;;;4971128;28;19910;-69
2023/12/24 05:20:41;;;;;;;;;;;26.20;99.90;;;;;;4970800;28;19956;-68
2023/12/24 05:23:07;;;;;;;;;;;26.10;99.90;;;;;;4970194;28;19922;-68
2023/12/24 05:25:34;;;;;;;;;;;25.90;99.90;;;;;;4970823;28;19910;-68
2023/12/24 05:28:01;;;;;;;;;;;25.70;99.90;;;;;;4971063;28;19914;-68
2023/12/24 05:30:27;;;;;;;;;;;25.40;99.90;;;;;;4970761;28;19922;-71
2023/12/24 05:32:54;;;;;;;;;;;25.30;99.90;;;;;;4970978;28;19915;-70
2023/12/24 05:35:20;;;;;;;;;;;25.20;99.90;;;;;;4970699;28;19925;-69
2023/12/24 05:37:47;;;;;;;;;;;25.20;99.90;;;;;;4970848;28;19911;-71
2023/12/24 05:40:14;;;;;;;;;;;25.20;99.90;;;;;;4970662;28;19911;-68
2023/12/24 05:42:42;;;;;;;;;;;25.00;99.90;;;;;;4970137;28;19914;-69
2023/12/24 05:45:12;;;;;;;;;;;24.60;99.90;;;;;;4970353;28;19918;-68
2023/12/24 05:47:38;;;;;;;;;;;24.20;99.90;;;;;;4969375;28;19910;-70
2023/12/24 05:50:06;;;;;;;;;;;23.70;99.90;;;;;;4970422;28;19941;-70
2023/12/24 05:52:33;;;;;;;;;;;23.20;99.90;;;;;;4970398;28;19910;-71
2023/12/24 05:55:00;;;;;;;;;;;22.90;99.90;;;;;;4972701;28;19918;-69
2023/12/24 05:57:27;;;;;;;;;;;22.50;99.90;;;;;;4972740;28;19914;-69
2023/12/24 05:59:54;;;;;;;;;;;22.10;99.90;;;;;;4973740;28;19971;-68
2023/12/24 06:02:20;;;;;;;;;;;21.80;99.90;;;;;;4973462;28;19914;-68
2023/12/24 06:04:48;;;;;;;;;;;21.60;99.90;;;;;;4974209;28;19910;-78
2023/12/24 06:07:15;;;;;;;;;;;21.30;99.90;;;;;;4974071;28;19916;-79
2023/12/24 06:09:41;;;;;;;;;;;20.70;99.90;;;;;;4973797;28;19910;-73
2023/12/24 06:12:08;;;;;;;;;;;20.20;99.90;;;;;;4973755;28;19921;-76
2023/12/24 06:14:35;;;;;;;;;;;20.10;99.90;;;;;;4973705;28;19919;-72
2023/12/24 06:17:02;;;;;;;;;;;19.80;99.90;;;;;;4973229;28;19914;-75
2023/12/24 06:19:29;;;;;;;;;;;19.70;99.90;;;;;;4973201;28;20291;-76
2023/12/24 06:21:55;;;;;;;;;;;19.60;99.90;;;;;;4973175;28;19925;-74
2023/12/24 06:24:22;;;;;;;;;;;19.50;99.90;;;;;;4973414;28;19910;-74
2023/12/24 06:26:49;;;;;;;;;;;19.20;99.90;;;;;;4973879;28;19964;-70
2023/12/24 06:29:15;;;;;;;;;;;19.30;99.90;;;;;;4973430;28;19910;-77
2023/12/24 06:31:42;;;;;;;;;;;19.30;99.90;;;;;;4974301;28;19989;-78
2023/12/24 06:34:09;;;;;;;;;;;19.50;99.90;;;;;;4973955;28;19910;-82
2023/12/24 06:36:36;;;;;;;;;;;19.70;99.90;;;;;;4973042;28;19925;-80
2023/12/24 06:39:03;;;;;;;;;;;20.00;99.90;;;;;;4973640;28;19925;-79
2023/12/24 06:41:29;;;;;;;;;;;20.30;99.90;;;;;;4973506;28;19962;-75
2023/12/24 06:43:56;;;;;;;;;;;20.50;99.90;;;;;;4973589;28;20313;-76
2023/12/24 06:46:24;;;;;;;;;;;20.70;99.90;;;;;;4973302;28;20004;-73
2023/12/24 06:48:54;;;;;;;;;;;20.90;99.90;;;;;;4972199;28;19963;-74
2023/12/24 06:51:20;;;;;;;;;;;21.10;99.90;;;;;;4972167;28;20354;-75
2023/12/24 06:53:47;;;;;;;;;;;21.20;99.90;;;;;;4972238;28;20137;-76
2023/12/24 06:56:14;;;;;;;;;;;21.30;99.90;;;;;;4971586;28;19985;-70
2023/12/24 06:58:40;;;;;;;;;;;21.20;99.90;;;;;;4971666;28;19922;-75
2023/12/24 07:01:07;;;;;;;;;;;20.90;99.90;;;;;;4971659;28;20430;-72
2023/12/24 07:03:33;;;;;;;;;;;20.90;99.90;;;;;;4972634;28;19956;-74
2023/12/24 07:06:00;;;;;;;;;;;20.80;99.90;;;;;;4972036;28;19911;-72
2023/12/24 07:08:29;;;;;;;;;;;20.80;99.90;;;;;;4973125;28;19914;-72
2023/12/24 07:10:56;;;;;;;;;;;20.70;99.90;;;;;;4973022;28;19950;-72
2023/12/24 07:13:22;;;;;;;;;;;20.80;99.90;;;;;;4972915;28;19997;-70
2023/12/24 07:15:49;;;;;;;;;;;20.80;99.90;;;;;;4972520;28;19932;-78
2023/12/24 07:18:16;;;;;;;;;;;20.70;99.90;;;;;;4973034;28;19914;-74
2023/12/24 07:20:43;;;;;;;;;;;20.80;99.90;;;;;;4973015;28;19918;-77
2023/12/24 07:23:09;;;;;;;;;;;20.70;99.90;;;;;;4971422;28;19930;-72
2023/12/24 07:25:36;;;;;;;;;;;20.70;99.90;;;;;;4972885;28;19910;-72
2023/12/24 07:28:02;;;;;;;;;;;20.80;99.90;;;;;;4972601;28;20294;-80
2023/12/24 07:30:29;;;;;;;;;;;20.80;99.90;;;;;;4972708;28;20335;-77
2023/12/24 07:33:03;;;;;;;;;;;20.80;99.90;;;;;;4973142;28;19910;-80
2023/12/24 07:35:40;;;;;;;;;;;20.80;99.90;;;;;;4971485;28;20379;-83
2023/12/24 07:38:08;;;;;;;;;;;20.80;99.90;;;;;;4971789;28;20270;-83
2023/12/24 07:40:35;;;;;;;;;;;20.80;99.90;;;;;;4972569;28;20455;-83
2023/12/24 07:43:02;;;;;;;;;;;20.90;99.90;;;;;;4973483;28;19910;-82
2023/12/24 07:45:28;;;;;;;;;;;20.90;99.90;;;;;;4972516;28;19955;-83
2023/12/24 07:47:55;;;;;;;;;;;20.90;99.90;;;;;;4972735;28;19916;-83
2023/12/24 07:50:22;;;;;;;;;;;20.90;99.90;;;;;;4972887;28;19917;-83
2023/12/24 07:52:48;;;;;;;;;;;20.90;99.90;;;;;;4972307;28;19917;-79
2023/12/24 07:55:15;;;;;;;;;;;20.90;99.90;;;;;;4972183;28;20299;-76
2023/12/24 07:57:41;;;;;;;;;;;21.00;99.90;;;;;;4972146;28;21183;-82
2023/12/24 08:00:08;;;;;;;;;;;20.90;99.90;;;;;;4972450;28;20004;-72
2023/12/24 08:02:35;;;;;;;;;;;20.90;99.90;;;;;;4972307;28;20007;-79
2023/12/24 08:05:02;;;;;;;;;;;20.90;99.90;;;;;;4971639;28;19950;-70
2023/12/24 08:07:28;;;;;;;;;;;21.00;99.90;;;;;;4971811;28;20004;-78
2023/12/24 08:09:56;;;;;;;;;;;21.00;99.90;;;;;;4972105;28;20438;-72
2023/12/24 08:12:23;;;;;;;;;;;21.00;99.90;;;;;;4972103;28;20306;-74
2023/12/24 08:14:49;;;;;;;;;;;21.00;99.90;;;;;;4972071;28;20012;-71
2023/12/24 08:17:16;;;;;;;;;;;21.10;99.90;;;;;;4971960;28;19960;-70
2023/12/24 08:19:44;;;;;;;;;;;21.10;99.90;;;;;;4972537;28;19949;-80
2023/12/24 08:22:11;;;;;;;;;;;21.10;99.90;;;;;;4971862;28;19926;-71
2023/12/24 08:24:40;;;;;;;;;;;21.00;99.90;;;;;;4972321;28;20421;-71
2023/12/24 08:27:10;;;;;;;;;;;20.90;99.90;;;;;;4972122;28;20223;-73
2023/12/24 08:29:37;;;;;;;;;;;20.90;99.90;;;;;;4972313;28;19973;-71
2023/12/24 08:32:04;;;;;;;;;;;20.90;99.90;;;;;;4971722;28;19960;-80
2023/12/24 08:34:31;;;;;;;;;;;20.80;99.90;;;;;;4972282;28;19917;-79
2023/12/24 08:36:58;;;;;;;;;;;20.70;99.90;;;;;;4973030;28;20323;-78
2023/12/24 08:39:25;;;;;;;;;;;20.70;99.90;;;;;;4974500;28;19910;-73
2023/12/24 08:41:53;;;;;;;;;;;20.80;99.90;;;;;;4972796;28;19910;-72
2023/12/24 08:44:23;;;;;;;;;;;20.70;99.90;;;;;;4972219;28;19910;-71
2023/12/24 08:46:49;;;;;;;;;;;20.60;99.90;;;;;;4972348;28;19918;-70
2023/12/24 08:49:16;;;;;;;;;;;20.60;99.90;;;;;;4972581;28;20083;-72
2023/12/24 08:51:43;;;;;;;;;;;20.60;99.90;;;;;;4972168;28;19914;-77
2023/12/24 08:54:10;;;;;;;;;;;20.40;99.90;;;;;;4973681;28;20000;-71
2023/12/24 08:56:39;;;;;;;;;;;20.40;99.90;;;;;;4974027;28;19925;-72
2023/12/24 08:59:08;;;;;;;;;;;20.30;99.90;;;;;;4973030;28;20027;-71
2023/12/24 09:01:39;;;;;;;;;;;20.30;99.90;;;;;;4975289;28;19917;-71
2023/12/24 09:04:06;;;;;;;;;;;20.20;99.90;;;;;;4974024;28;19945;-69
2023/12/24 09:06:34;;;;;;;;;;;20.20;99.90;;;;;;4974533;28;19975;-73
2023/12/24 09:09:00;;;;;;;;;;;20.10;99.90;;;;;;4974416;28;19989;-72
2023/12/24 09:11:27;;;;;;;;;;;20.10;99.90;;;;;;4974727;28;19910;-70
2023/12/24 09:13:54;;;;;;;;;;;20.20;99.90;;;;;;4972577;28;20047;-72
2023/12/24 09:16:20;;;;;;;;;;;20.20;99.90;;;;;;4971461;28;19972;-69
2023/12/24 09:18:47;;;;;;;;;;;20.20;99.90;;;;;;4971887;28;19968;-78
2023/12/24 09:21:14;;;;;;;;;;;20.20;99.90;;;;;;4971355;28;19933;-69
2023/12/24 09:23:40;;;;;;;;;;;20.30;99.90;;;;;;4969964;28;19926;-76
2023/12/24 09:26:07;;;;;;;;;;;20.30;99.90;;;;;;4971066;28;19915;-69
2023/12/24 09:28:34;;;;;;;;;;;20.30;99.90;;;;;;4972158;28;19922;-73
2023/12/24 09:31:00;;;;;;;;;;;20.40;99.90;;;;;;4974842;28;19964;-70
2023/12/24 09:33:27;;;;;;;;;;;20.40;99.90;;;;;;4974468;28;20311;-70
2023/12/24 09:35:53;;;;;;;;;;;20.50;99.90;;;;;;4975908;28;20056;-69
2023/12/24 09:38:20;;;;;;;;;;;20.50;99.90;;;;;;4975835;28;19910;-70
2023/12/24 09:40:51;;;;;;;;;;;20.50;99.90;;;;;;4977550;28;19911;-71
2023/12/24 09:43:17;;;;;;;;;;;20.50;99.90;;;;;;4978315;28;19914;-73
2023/12/24 09:45:44;;;;;;;;;;;20.60;99.90;;;;;;4977619;28;20005;-77
2023/12/24 09:48:10;;;;;;;;;;;20.50;99.90;;;;;;4977522;28;20358;-69
2023/12/24 09:50:37;;;;;;;;;;;20.50;99.90;;;;;;4977592;28;19910;-70
2023/12/24 09:53:05;;;;;;;;;;;20.60;99.90;;;;;;4977215;28;19918;-69
2023/12/24 09:55:32;;;;;;;;;;;20.60;99.90;;;;;;4974740;28;19918;-69
2023/12/24 09:57:59;;;;;;;;;;;20.60;99.90;;;;;;4975170;28;20491;-69
2023/12/24 10:00:25;;;;;;;;;;;20.70;99.90;;;;;;4974495;28;19910;-69
2023/12/24 10:02:52;;;;;;;;;;;20.70;99.90;;;;;;4974485;28;20366;-73
2023/12/24 10:05:20;;;;;;;;;;;20.70;99.90;;;;;;4974817;28;19946;-70
2023/12/24 10:07:46;;;;;;;;;;;20.80;99.90;;;;;;4974704;28;19963;-78
2023/12/24 10:10:17;;;;;;;;;;;20.70;99.90;;;;;;4974102;28;19963;-69
2023/12/24 10:12:43;;;;;;;;;;;20.80;99.90;;;;;;4973528;28;19937;-73
2023/12/24 10:15:11;;;;;;;;;;;20.80;99.90;;;;;;4973136;28;19926;-72
2023/12/24 10:17:38;;;;;;;;;;;20.80;99.90;;;;;;4973617;28;19918;-70
2023/12/24 10:20:09;;;;;;;;;;;20.80;99.90;;;;;;4974010;28;19918;-74
2023/12/24 10:22:36;;;;;;;;;;;20.80;99.90;;;;;;4972163;28;20299;-70
2023/12/24 10:25:04;;;;;;;;;;;20.70;99.90;;;;;;4973598;28;20248;-69
2023/12/24 10:27:30;;;;;;;;;;;20.80;99.90;;;;;;4973233;28;20279;-71
2023/12/24 10:30:10;;;;;;;;;;;20.70;99.90;;;;;;4973557;28;20381;-73
2023/12/24 10:32:37;;;;;;;;;;;20.70;99.90;;;;;;4973487;28;19959;-71
2023/12/24 10:35:04;;;;;;;;;;;20.60;99.90;;;;;;4973144;28;19965;-70
2023/12/24 10:37:30;;;;;;;;;;;20.50;99.90;;;;;;4973568;28;20469;-72
2023/12/24 10:40:08;;;;;;;;;;;20.50;99.90;;;;;;4972237;28;19914;-71
2023/12/24 10:42:38;;;;;;;;;;;20.50;99.90;;;;;;4973540;28;19914;-71
2023/12/24 10:45:05;;;;;;;;;;;20.40;99.90;;;;;;4973244;28;19957;-71
2023/12/24 10:47:32;;;;;;;;;;;20.50;99.90;;;;;;4973462;28;19932;-71
2023/12/24 10:49:58;;;;;;;;;;;20.40;99.90;;;;;;4973088;28;19916;-72
2023/12/24 10:52:25;;;;;;;;;;;20.40;99.90;;;;;;4973094;28;19921;-71
2023/12/24 10:54:56;;;;;;;;;;;20.30;99.90;;;;;;4972934;28;20355;-71
2023/12/24 10:57:41;;;;;;;;;;;20.30;99.90;;;;;;4973065;28;20385;-70
2023/12/24 11:00:12;;;;;;;;;;;20.30;99.90;;;;;;4973292;28;19910;-72
2023/12/24 11:02:43;;;;;;;;;;;20.40;99.90;;;;;;4971748;28;19914;-70
2023/12/24 11:05:10;;;;;;;;;;;20.40;99.90;;;;;;4972938;28;19964;-71
2023/12/24 11:07:45;;;;;;;;;;;20.40;99.90;;;;;;4972799;28;19914;-70
2023/12/24 11:10:32;;;;;;;;;;;20.50;99.90;;;;;;4972625;28;19949;-71
2023/12/24 11:12:58;;;;;;;;;;;20.40;99.90;;;;;;4972658;28;20005;-72
2023/12/24 11:15:46;;;;;;;;;;;20.40;99.90;;;;;;4972520;28;19921;-72
2023/12/24 11:18:32;;;;;;;;;;;20.30;99.90;;;;;;4972748;28;19996;-70
2023/12/24 11:20:59;;;;;;;;;;;20.40;99.90;;;;;;4972737;28;19953;-71
2023/12/24 11:23:26;;;;;;;;;;;20.30;99.90;;;;;;4972392;28;19922;-72
2023/12/24 11:25:53;;;;;;;;;;;20.40;99.90;;;;;;4971595;28;20343;-69
2023/12/24 11:28:23;;;;;;;;;;;20.40;99.90;;;;;;4972755;28;20271;-78
2023/12/24 11:30:49;;;;;;;;;;;20.40;99.90;;;;;;4972496;28;20408;-71
2023/12/24 11:33:31;;;;;;;;;;;20.40;99.90;;;;;;4972606;28;19918;-71
2023/12/24 11:36:04;;;;;;;;;;;20.40;99.90;;;;;;4972246;28;20272;-73
2023/12/24 11:38:36;;;;;;;;;;;20.30;99.90;;;;;;4972470;28;19917;-73
2023/12/24 11:41:06;;;;;;;;;;;20.40;99.90;;;;;;4972635;28;20282;-69
2023/12/24 11:43:33;;;;;;;;;;;20.40;99.90;;;;;;4972406;28;20421;-73
2023/12/24 11:46:00;;;;;;;;;;;20.40;99.90;;;;;;4972019;28;19922;-71
2023/12/24 11:48:31;;;;;;;;;;;20.40;99.90;;;;;;4971061;28;20538;-75
2023/12/24 11:51:02;;;;;;;;;;;20.40;99.90;;;;;;4969425;28;19918;-75
2023/12/24 11:53:35;;;;;;;;;;;20.30;99.90;;;;;;4971933;28;19910;-70
2023/12/24 11:56:11;;;;;;;;;;;20.30;99.90;;;;;;4971908;28;19964;-70
2023/12/24 11:58:38;;;;;;;;;;;20.30;99.90;;;;;;4972138;28;20001;-75
2023/12/24 12:01:05;;;;;;;;;;;20.30;99.90;;;;;;4971951;28;19910;-72
2023/12/24 12:03:32;;;;;;;;;;;20.40;99.90;;;;;;4971653;28;20375;-69
2023/12/24 12:05:59;;;;;;;;;;;20.30;99.90;;;;;;4971793;28;19933;-74
2023/12/24 12:08:28;;;;;;;;;;;20.30;99.90;;;;;;4971912;28;19940;-71
2023/12/24 12:10:55;;;;;;;;;;;20.30;99.90;;;;;;4971566;28;19961;-74
2023/12/24 12:13:22;;;;;;;;;;;20.30;99.90;;;;;;4971758;28;20330;-70
2023/12/24 12:15:49;;;;;;;;;;;20.30;99.90;;;;;;4971756;28;19918;-68
2023/12/24 12:18:16;;;;;;;;;;;20.40;99.90;;;;;;4971973;28;19917;-69
2023/12/24 12:20:45;;;;;;;;;;;20.40;99.90;;;;;;4971888;28;20055;-70
2023/12/24 12:23:13;;;;;;;;;;;20.30;99.90;;;;;;4971520;28;20268;-70
2023/12/24 12:25:39;;;;;;;;;;;20.40;99.90;;;;;;4970777;28;19998;-72
2023/12/24 12:28:06;;;;;;;;;;;20.30;99.90;;;;;;4971665;28;19921;-72
2023/12/24 12:30:33;;;;;;;;;;;20.30;99.90;;;;;;4971520;28;19910;-74
2023/12/24 12:32:59;;;;;;;;;;;20.30;99.90;;;;;;4965322;28;19937;-70
2023/12/24 12:35:26;;;;;;;;;;;20.40;99.90;;;;;;4961216;28;19914;-69
2023/12/24 12:37:53;;;;;;;;;;;20.30;99.90;;;;;;4962149;28;19910;-70
2023/12/24 12:40:20;;;;;;;;;;;20.30;99.90;;;;;;4962722;28;19954;-74
2023/12/24 12:42:50;;;;;;;;;;;20.20;99.90;;;;;;4962219;28;20005;-72
2023/12/24 12:45:16;;;;;;;;;;;20.20;99.90;;;;;;4965819;28;20413;-68
2023/12/24 12:47:43;;;;;;;;;;;20.10;99.90;;;;;;4964759;28;19964;-72
2023/12/24 12:50:10;;;;;;;;;;;20.10;99.90;;;;;;4954767;28;19925;-73
2023/12/24 12:52:36;;;;;;;;;;;20.00;99.90;;;;;;4951383;28;20005;-73
2023/12/24 12:55:04;;;;;;;;;;;20.10;99.90;;;;;;4950075;28;20013;-72
2023/12/24 12:57:35;;;;;;;;;;;20.10;99.90;;;;;;4966346;28;20279;-74
2023/12/24 13:00:13;;;;;;;;;;;20.10;99.90;;;;;;4969268;28;19960;-71
2023/12/24 13:02:40;;;;;;;;;;;20.10;99.90;;;;;;4968972;28;19918;-73
2023/12/24 13:05:27;;;;;;;;;;;20.00;99.90;;;;;;4968861;28;19967;-72
2023/12/24 13:07:54;;;;;;;;;;;20.00;99.90;;;;;;4971022;28;19917;-77
2023/12/24 13:10:28;;;;;;;;;;;19.90;99.90;;;;;;4970776;28;19914;-74
2023/12/24 13:13:07;;;;;;;;;;;19.90;99.90;;;;;;4969612;28;20024;-72
2023/12/24 13:15:34;;;;;;;;;;;19.90;99.90;;;;;;4955762;28;19950;-74
2023/12/24 13:18:33;;;;;;;;;;;20.00;99.90;;;;;;4962016;28;20274;-74
2023/12/24 13:21:10;;;;;;;;;;;20.00;99.90;;;;;;4978642;28;20005;-74
2023/12/24 13:23:38;;;;;;;;;;;20.00;99.90;;;;;;4950460;28;19923;-75
2023/12/24 13:26:05;;;;;;;;;;;20.00;99.90;;;;;;4956798;28;19910;-75
2023/12/24 13:28:32;;;;;;;;;;;19.90;99.90;;;;;;4970652;28;20252;-75
2023/12/24 13:30:58;;;;;;;;;;;19.90;99.90;;;;;;4970536;28;19999;-74
2023/12/24 13:33:25;;;;;;;;;;;20.00;99.90;;;;;;4970647;28;19940;-73
2023/12/24 13:35:52;;;;;;;;;;;19.90;99.90;;;;;;4970258;28;19922;-72
2023/12/24 13:38:20;;;;;;;;;;;20.00;99.90;;;;;;4970129;28;19914;-76
2023/12/24 13:40:47;;;;;;;;;;;19.90;99.90;;;;;;4969515;28;20327;-75
2023/12/24 13:43:13;;;;;;;;;;;20.00;99.90;;;;;;4970104;28;19917;-76
2023/12/24 13:45:40;;;;;;;;;;;20.00;99.90;;;;;;4970023;28;19910;-74
2023/12/24 13:48:07;;;;;;;;;;;20.00;99.90;;;;;;4969633;28;20312;-73
2023/12/24 13:50:38;;;;;;;;;;;20.00;99.90;;;;;;4970252;28;19915;-75
2023/12/24 13:53:05;;;;;;;;;;;20.00;99.90;;;;;;4970884;28;20308;-78
2023/12/24 13:55:34;;;;;;;;;;;20.00;99.90;;;;;;4970475;28;19934;-73
2023/12/24 13:58:00;;;;;;;;;;;19.90;99.90;;;;;;4969953;28;19980;-73
2023/12/24 14:00:28;;;;;;;;;;;19.90;99.90;;;;;;4968877;28;19937;-73
2023/12/24 14:02:54;;;;;;;;;;;20.00;99.90;;;;;;4969785;28;19929;-72
2023/12/24 14:05:26;;;;;;;;;;;20.00;99.90;;;;;;4970433;28;19955;-74
2023/12/24 14:07:56;;;;;;;;;;;20.00;99.90;;;;;;4970152;28;19910;-74
2023/12/24 14:10:23;;;;;;;;;;;19.90;99.90;;;;;;4969479;28;20463;-73
2023/12/24 14:12:53;;;;;;;;;;;19.90;99.90;;;;;;4970033;28;20267;-73
2023/12/24 14:15:20;;;;;;;;;;;19.80;99.90;;;;;;4972537;28;19921;-74
2023/12/24 14:17:47;;;;;;;;;;;19.80;99.90;;;;;;4973562;28;19910;-72
2023/12/24 14:20:14;;;;;;;;;;;19.70;99.90;;;;;;4973279;28;19910;-73